Terminal Aerodrome Forecast
Issued by NWS Duluth, MN

Home | Current Version | Previous Version | Text Only | Print | Product List | Glossary On
Versions: 1 2 3 4 5 6 7 8 9 10 11 12 13 14 15
000
FTUS43 KDLH 030500
TAFDLH
TAF
KDLH 030520Z 0306/0406 12007KT P6SM SCT150 WS015/22040KT
     FM031400 21009KT P6SM VCSH SCT120
     FM031800 29010G18KT 5SM -SHRA VCTS BKN050CB
     FM032100 32013G23KT P6SM VCSH BKN100
     FM040100 30007KT P6SM SCT100=

USA.gov is the U.S. government's official web portal to all federal, state and local government web resources and services.